Time;durP1;ratioP1;P1;durP2;ratioP2;P2;SDS_P1;SDS_P2;PMS_P1;PMS_P2;Temp;Humidity;BMP_temperature;BMP_pressure;BME280_temperature;BME280_humidity;BME280_pressure;Samples;Min_cycle;Max_cycle;Signal;HPM_P1;HPM_P2
2020/08/11 00:00:45;;;;;;;6.26;5.76;;;;;;;23.29;67.84;100148.13;;;;-48
2020/08/11 00:03:45;;;;;;;6.26;5.76;;;;;;;23.28;67.76;100147.89;;;;-48
2020/08/11 00:06:45;;;;;;;6.43;5.90;;;;;;;23.28;67.85;100150.40;;;;-49
2020/08/11 00:09:45;;;;;;;5.79;5.38;;;;;;;23.27;67.77;100147.66;;;;-49
2020/08/11 00:12:45;;;;;;;6.33;5.79;;;;;;;23.26;67.79;100150.86;;;;-49
2020/08/11 00:15:45;;;;;;;5.97;5.47;;;;;;;23.27;67.78;100153.39;;;;-49
2020/08/11 00:18:45;;;;;;;5.97;5.47;;;;;;;23.26;67.79;100144.47;;;;-49
2020/08/11 00:21:45;;;;;;;6.05;5.57;;;;;;;23.25;67.77;100142.03;;;;-48
2020/08/11 00:24:45;;;;;;;6.12;5.62;;;;;;;23.25;67.78;100139.02;;;;-49
2020/08/11 00:27:45;;;;;;;6.28;5.78;;;;;;;23.25;67.80;100139.91;;;;-48
2020/08/11 00:30:45;;;;;;;5.74;5.34;;;;;;;23.25;67.81;100144.26;;;;-49
2020/08/11 00:33:45;;;;;;;6.11;5.57;;;;;;;23.24;67.89;100145.87;;;;-49
2020/08/11 00:36:45;;;;;;;5.81;5.41;;;;;;;23.24;67.81;100147.77;;;;-49
2020/08/11 00:39:45;;;;;;;5.79;5.39;;;;;;;23.23;67.77;100152.69;;;;-49
2020/08/11 00:42:45;;;;;;;6.12;5.62;;;;;;;23.23;67.80;100153.18;;;;-49
2020/08/11 00:45:45;;;;;;;5.97;5.47;;;;;;;23.23;67.84;100152.80;;;;-48
2020/08/11 00:48:45;;;;;;;5.94;5.44;;;;;;;23.22;67.76;100156.54;;;;-49
2020/08/11 00:51:45;;;;;;;6.09;5.59;;;;;;;23.23;67.75;100160.48;;;;-48
2020/08/11 00:54:45;;;;;;;5.65;5.25;;;;;;;23.23;67.75;100159.33;;;;-48
2020/08/11 00:57:55;;;;;;;5.35;4.95;;;;;;;23.22;67.77;100163.98;;;;-49
2020/08/11 01:00:45;;;;;;;5.55;5.13;;;;;;;23.22;67.73;100161.20;;;;-48
2020/08/11 01:03:45;;;;;;;5.80;5.37;;;;;;;23.22;67.75;100161.86;;;;-48
2020/08/11 01:06:45;;;;;;;5.59;5.15;;;;;;;23.21;67.77;100163.27;;;;-48
2020/08/11 01:09:45;;;;;;;5.87;5.43;;;;;;;23.21;67.78;100161.56;;;;-49
2020/08/11 01:12:45;;;;;;;5.85;5.40;;;;;;;23.20;67.77;100162.95;;;;-49
2020/08/11 01:15:45;;;;;;;6.05;5.59;;;;;;;23.20;67.76;100160.98;;;;-48
2020/08/11 01:18:45;;;;;;;5.75;5.30;;;;;;;23.20;67.76;100161.00;;;;-48
2020/08/11 01:21:45;;;;;;;5.62;5.20;;;;;;;23.20;67.79;100160.25;;;;-47
2020/08/11 01:24:44;;;;;;;5.79;5.29;;;;;;;23.19;67.71;100161.73;;;;-49
2020/08/11 01:27:45;;;;;;;5.70;5.25;;;;;;;23.19;67.73;100162.39;;;;-49
2020/08/11 01:30:45;;;;;;;5.71;5.23;;;;;;;23.18;67.73;100163.64;;;;-48
2020/08/11 01:33:45;;;;;;;5.42;5.02;;;;;;;23.19;67.73;100165.73;;;;-48
2020/08/11 01:36:45;;;;;;;5.35;4.95;;;;;;;23.18;67.73;100164.71;;;;-48
2020/08/11 01:39:45;;;;;;;5.51;5.11;;;;;;;23.18;67.71;100159.23;;;;-48
2020/08/11 01:42:45;;;;;;;5.48;5.08;;;;;;;23.18;67.72;100155.37;;;;-48
2020/08/11 01:45:45;;;;;;;5.35;4.95;;;;;;;23.18;67.77;100154.58;;;;-49
2020/08/11 01:48:45;;;;;;;5.50;5.10;;;;;;;23.18;67.71;100153.91;;;;-48
2020/08/11 01:51:45;;;;;;;5.48;5.08;;;;;;;23.17;67.76;100159.31;;;;-49
2020/08/11 01:54:45;;;;;;;5.67;5.27;;;;;;;23.17;67.71;100158.66;;;;-48
2020/08/11 01:57:45;;;;;;;5.73;5.18;;;;;;;23.17;67.72;100160.38;;;;-48
2020/08/11 02:00:45;;;;;;;5.25;4.86;;;;;;;23.17;67.70;100156.39;;;;-48
2020/08/11 02:03:45;;;;;;;5.29;4.89;;;;;;;23.16;67.72;100155.82;;;;-48
2020/08/11 02:06:45;;;;;;;5.57;5.17;;;;;;;23.17;67.73;100152.79;;;;-49
2020/08/11 02:09:45;;;;;;;5.72;5.22;;;;;;;23.16;67.71;100142.48;;;;-49
2020/08/11 02:12:45;;;;;;;5.50;5.10;;;;;;;23.16;67.72;100153.44;;;;-48
2020/08/11 02:15:45;;;;;;;5.37;4.97;;;;;;;23.17;67.79;100155.08;;;;-48
2020/08/11 02:18:45;;;;;;;5.34;4.89;;;;;;;23.16;67.71;100158.53;;;;-49
2020/08/11 02:21:45;;;;;;;5.45;5.05;;;;;;;23.16;67.80;100159.66;;;;-48
2020/08/11 02:24:45;;;;;;;5.38;4.98;;;;;;;23.16;67.71;100160.63;;;;-48
2020/08/11 02:27:44;;;;;;;5.40;5.00;;;;;;;23.15;67.74;100163.27;;;;-49
2020/08/11 02:30:44;;;;;;;5.01;4.62;;;;;;;23.16;67.72;100165.87;;;;-49
2020/08/11 02:33:45;;;;;;;5.03;4.66;;;;;;;23.15;67.79;100164.98;;;;-48
2020/08/11 02:36:45;;;;;;;5.27;4.87;;;;;;;23.15;67.89;100165.57;;;;-49
2020/08/11 02:39:45;;;;;;;5.11;4.71;;;;;;;23.15;67.84;100175.55;;;;-49
2020/08/11 02:42:45;;;;;;;5.20;4.80;;;;;;;23.14;67.94;100176.37;;;;-49
2020/08/11 02:45:45;;;;;;;5.28;4.88;;;;;;;23.14;67.97;100179.97;;;;-50
2020/08/11 02:48:45;;;;;;;4.90;4.54;;;;;;;23.14;67.88;100184.62;;;;-48
2020/08/11 02:51:45;;;;;;;4.99;4.59;;;;;;;23.14;67.96;100176.21;;;;-48
2020/08/11 02:54:45;;;;;;;5.25;4.85;;;;;;;23.13;68.00;100174.58;;;;-49
2020/08/11 02:57:45;;;;;;;4.97;4.57;;;;;;;23.14;68.08;100176.52;;;;-48
2020/08/11 03:00:45;;;;;;;5.01;4.61;;;;;;;23.13;68.01;100181.36;;;;-48
2020/08/11 03:03:45;;;;;;;4.89;4.55;;;;;;;23.13;68.05;100186.42;;;;-49
2020/08/11 03:06:45;;;;;;;4.95;4.55;;;;;;;23.13;68.05;100184.39;;;;-50
2020/08/11 03:09:45;;;;;;;4.98;4.53;;;;;;;23.12;68.07;100183.59;;;;-49
2020/08/11 03:12:45;;;;;;;5.18;4.78;;;;;;;23.12;68.06;100186.05;;;;-48
2020/08/11 03:15:45;;;;;;;5.17;4.77;;;;;;;23.11;68.07;100183.83;;;;-48
2020/08/11 03:18:45;;;;;;;5.05;4.65;;;;;;;23.11;68.12;100186.28;;;;-48
2020/08/11 03:21:45;;;;;;;5.13;4.73;;;;;;;23.11;68.15;100186.37;;;;-48
2020/08/11 03:24:45;;;;;;;5.21;4.81;;;;;;;23.12;68.09;100190.22;;;;-48
2020/08/11 03:27:45;;;;;;;5.08;4.68;;;;;;;23.11;68.05;100192.82;;;;-49
2020/08/11 03:30:45;;;;;;;5.49;5.09;;;;;;;23.11;67.95;100201.48;;;;-48
2020/08/11 03:33:44;;;;;;;5.24;4.84;;;;;;;23.12;68.02;100206.30;;;;-49
2020/08/11 03:36:44;;;;;;;5.36;4.96;;;;;;;23.11;68.07;100207.22;;;;-48
2020/08/11 03:39:44;;;;;;;5.59;5.19;;;;;;;23.11;68.08;100210.00;;;;-48
2020/08/11 03:42:45;;;;;;;5.40;4.97;;;;;;;23.10;68.15;100217.28;;;;-48
2020/08/11 03:45:45;;;;;;;5.49;5.09;;;;;;;23.10;68.17;100219.50;;;;-48
2020/08/11 03:48:45;;;;;;;5.15;4.75;;;;;;;23.10;68.16;100222.05;;;;-48
2020/08/11 03:51:45;;;;;;;5.58;5.18;;;;;;;23.10;68.21;100223.19;;;;-49
2020/08/11 03:54:45;;;;;;;5.41;5.01;;;;;;;23.10;68.14;100227.27;;;;-48
2020/08/11 03:57:45;;;;;;;5.65;5.23;;;;;;;23.09;68.17;100230.21;;;;-49
2020/08/11 04:00:45;;;;;;;5.61;5.21;;;;;;;23.09;68.12;100231.27;;;;-49
2020/08/11 04:03:45;;;;;;;5.38;4.98;;;;;;;23.09;68.12;100234.94;;;;-49
2020/08/11 04:06:44;;;;;;;5.95;5.53;;;;;;;23.09;68.15;100234.28;;;;-48
2020/08/11 04:09:45;;;;;;;5.53;5.13;;;;;;;23.10;68.14;100237.17;;;;-48
2020/08/11 04:12:45;;;;;;;5.49;5.09;;;;;;;23.09;68.18;100236.59;;;;-48
2020/08/11 04:15:45;;;;;;;5.63;5.23;;;;;;;23.09;68.15;100238.95;;;;-48
2020/08/11 04:18:45;;;;;;;5.72;5.31;;;;;;;23.09;68.14;100241.23;;;;-49
2020/08/11 04:21:45;;;;;;;5.43;5.03;;;;;;;23.08;68.10;100242.00;;;;-48
2020/08/11 04:24:45;;;;;;;5.68;5.28;;;;;;;23.09;68.12;100245.58;;;;-48
2020/08/11 04:27:45;;;;;;;5.92;5.45;;;;;;;23.09;68.18;100251.23;;;;-49
2020/08/11 04:30:45;;;;;;;5.67;5.27;;;;;;;23.09;68.14;100252.28;;;;-48
2020/08/11 04:33:45;;;;;;;5.57;5.17;;;;;;;23.08;68.18;100255.89;;;;-49
2020/08/11 04:36:44;;;;;;;5.63;5.23;;;;;;;23.09;68.18;100258.09;;;;-48
2020/08/11 04:39:44;;;;;;;5.62;5.22;;;;;;;23.08;68.16;100256.06;;;;-50
2020/08/11 04:42:45;;;;;;;5.49;5.09;;;;;;;23.09;68.16;100260.70;;;;-48
2020/08/11 04:45:44;;;;;;;5.65;5.15;;;;;;;23.08;68.11;100263.41;;;;-48
2020/08/11 04:48:44;;;;;;;5.76;5.29;;;;;;;23.09;68.15;100264.14;;;;-48
2020/08/11 04:51:45;;;;;;;5.53;5.13;;;;;;;23.08;68.12;100267.17;;;;-49
2020/08/11 04:54:45;;;;;;;5.62;5.17;;;;;;;23.08;68.11;100262.10;;;;-49
2020/08/11 04:57:45;;;;;;;5.66;5.26;;;;;;;23.08;68.13;100260.06;;;;-48
2020/08/11 05:00:45;;;;;;;5.43;5.03;;;;;;;23.08;68.17;100260.30;;;;-48
2020/08/11 05:03:45;;;;;;;5.41;5.01;;;;;;;23.08;68.10;100263.59;;;;-48
2020/08/11 05:06:45;;;;;;;5.63;5.18;;;;;;;23.08;68.12;100266.77;;;;-48
2020/08/11 05:09:45;;;;;;;5.33;4.93;;;;;;;23.08;68.11;100269.48;;;;-48
2020/08/11 05:12:45;;;;;;;5.46;5.03;;;;;;;23.07;68.10;100266.27;;;;-50
2020/08/11 05:15:44;;;;;;;5.52;5.02;;;;;;;23.07;68.16;100267.17;;;;-48
2020/08/11 05:18:45;;;;;;;5.44;5.04;;;;;;;23.08;68.11;100261.88;;;;-48
2020/08/11 05:21:45;;;;;;;5.29;4.89;;;;;;;23.07;68.12;100269.62;;;;-49
2020/08/11 05:24:45;;;;;;;5.59;5.19;;;;;;;23.07;68.16;100267.34;;;;-48
2020/08/11 05:27:45;;;;;;;5.62;5.19;;;;;;;23.07;68.10;100266.12;;;;-49
2020/08/11 05:37:11;;;;;;;5.86;5.36;;;;;;;23.07;68.16;100262.53;;;;-49
2020/08/11 05:41:11;;;;;;;5.28;4.88;;;;;;;23.06;68.10;100265.98;;;;-50
2020/08/11 05:44:11;;;;;;;5.33;4.93;;;;;;;23.06;68.14;100269.66;;;;-49
2020/08/11 05:47:11;;;;;;;5.58;5.18;;;;;;;23.06;68.06;100275.22;;;;-48
2020/08/11 05:50:10;;;;;;;5.41;5.01;;;;;;;23.05;68.12;100273.66;;;;-48
2020/08/11 05:53:11;;;;;;;5.27;4.87;;;;;;;23.05;68.09;100277.09;;;;-47
2020/08/11 05:56:11;;;;;;;5.16;4.76;;;;;;;23.06;68.11;100283.64;;;;-48
2020/08/11 05:59:11;;;;;;;5.14;4.74;;;;;;;23.06;68.14;100280.61;;;;-48
2020/08/11 06:02:11;;;;;;;5.78;5.28;;;;;;;23.06;68.14;100279.96;;;;-47
2020/08/11 06:05:10;;;;;;;5.33;4.93;;;;;;;23.06;68.10;100278.15;;;;-48
2020/08/11 06:08:11;;;;;;;5.39;4.99;;;;;;;23.05;68.09;100279.80;;;;-48
2020/08/11 06:11:11;;;;;;;5.59;5.19;;;;;;;23.05;68.12;100278.31;;;;-49
2020/08/11 06:14:11;;;;;;;5.25;4.84;;;;;;;23.05;68.11;100280.61;;;;-48
2020/08/11 06:17:11;;;;;;;5.15;4.75;;;;;;;23.05;68.13;100282.73;;;;-48
2020/08/11 06:20:11;;;;;;;5.31;4.91;;;;;;;23.05;68.09;100285.02;;;;-47
2020/08/11 06:23:11;;;;;;;5.41;4.93;;;;;;;23.05;68.08;100289.03;;;;-48
2020/08/11 06:26:11;;;;;;;5.13;4.75;;;;;;;23.04;68.11;100291.66;;;;-49
2020/08/11 06:29:11;;;;;;;5.37;4.97;;;;;;;23.05;68.08;100294.27;;;;-48
2020/08/11 06:32:11;;;;;;;5.11;4.71;;;;;;;23.04;68.13;100293.54;;;;-49
2020/08/11 06:35:11;;;;;;;5.21;4.81;;;;;;;23.04;68.11;100295.50;;;;-49
2020/08/11 06:38:11;;;;;;;4.91;4.56;;;;;;;23.04;68.08;100293.70;;;;-48
2020/08/11 06:41:11;;;;;;;5.41;5.01;;;;;;;23.04;68.07;100299.09;;;;-49
2020/08/11 06:44:11;;;;;;;5.30;4.90;;;;;;;23.04;68.13;100305.47;;;;-49
2020/08/11 06:47:11;;;;;;;5.27;4.87;;;;;;;23.04;68.10;100312.35;;;;-48
2020/08/11 06:50:11;;;;;;;5.23;4.82;;;;;;;23.04;68.09;100313.82;;;;-49
2020/08/11 06:53:11;;;;;;;5.09;4.69;;;;;;;23.04;68.14;100320.85;;;;-48
2020/08/11 06:56:11;;;;;;;4.98;4.61;;;;;;;23.04;68.12;100322.23;;;;-50
2020/08/11 06:59:11;;;;;;;5.37;4.97;;;;;;;23.04;68.12;100328.46;;;;-49
2020/08/11 07:02:11;;;;;;;5.19;4.79;;;;;;;23.03;68.14;100328.52;;;;-48
2020/08/11 07:05:11;;;;;;;5.25;4.85;;;;;;;23.04;68.10;100328.63;;;;-48
2020/08/11 07:08:11;;;;;;;5.09;4.69;;;;;;;23.03;67.93;100330.23;;;;-49
2020/08/11 07:11:11;;;;;;;5.67;5.11;;;;;;;23.04;68.08;100334.26;;;;-50
2020/08/11 07:14:11;;;;;;;7.83;5.63;;;;;;;23.04;68.06;100338.98;;;;-49
2020/08/11 07:17:10;;;;;;;6.51;5.04;;;;;;;23.04;68.08;100340.12;;;;-49
2020/08/11 07:20:11;;;;;;;5.81;5.09;;;;;;;23.04;68.09;100339.98;;;;-50
2020/08/11 07:23:11;;;;;;;6.01;5.00;;;;;;;23.03;68.09;100342.73;;;;-49
2020/08/11 07:26:11;;;;;;;5.71;5.21;;;;;;;23.04;68.12;100342.02;;;;-49
2020/08/11 07:29:11;;;;;;;5.70;5.16;;;;;;;23.04;68.13;100343.17;;;;-49
2020/08/11 07:32:11;;;;;;;5.92;5.01;;;;;;;23.04;68.15;100345.63;;;;-49
2020/08/11 07:35:11;;;;;;;5.39;4.85;;;;;;;23.03;68.09;100349.61;;;;-49
2020/08/11 07:38:11;;;;;;;5.33;4.93;;;;;;;23.03;68.13;100349.11;;;;-48
2020/08/11 07:41:11;;;;;;;5.45;4.95;;;;;;;23.03;68.12;100344.46;;;;-49
2020/08/11 07:44:11;;;;;;;5.20;4.80;;;;;;;23.03;68.10;100346.34;;;;-50
2020/08/11 07:47:11;;;;;;;5.23;4.83;;;;;;;23.03;68.10;100346.84;;;;-50
2020/08/11 07:50:11;;;;;;;5.29;4.68;;;;;;;23.03;68.10;100346.01;;;;-50
2020/08/11 07:53:11;;;;;;;6.06;4.83;;;;;;;23.03;68.12;100343.98;;;;-50
2020/08/11 07:56:11;;;;;;;8.91;5.27;;;;;;;23.03;68.30;100342.90;;;;-44
2020/08/11 07:59:11;;;;;;;6.16;4.89;;;;;;;23.05;68.21;100345.50;;;;-40
2020/08/11 08:02:11;;;;;;;5.20;4.77;;;;;;;23.07;68.32;100346.05;;;;-42
2020/08/11 08:05:11;;;;;;;5.40;4.86;;;;;;;23.09;68.32;100349.22;;;;-43
2020/08/11 08:08:11;;;;;;;6.88;4.94;;;;;;;23.10;68.50;100346.61;;;;-51
2020/08/11 08:11:11;;;;;;;5.39;4.89;;;;;;;23.12;68.52;100346.91;;;;-50
2020/08/11 08:14:10;;;;;;;5.39;4.89;;;;;;;23.14;68.51;100346.06;;;;-51
2020/08/11 08:17:11;;;;;;;5.43;5.00;;;;;;;23.15;68.61;100347.27;;;;-49
2020/08/11 08:20:11;;;;;;;6.28;4.71;;;;;;;23.16;68.59;100345.24;;;;-42
2020/08/11 08:23:11;;;;;;;5.80;4.81;;;;;;;23.19;68.88;100347.72;;;;-47
2020/08/11 08:26:11;;;;;;;5.43;5.03;;;;;;;23.20;68.62;100346.41;;;;-47
2020/08/11 08:29:11;;;;;;;5.82;4.78;;;;;;;23.20;68.31;100346.41;;;;-47
2020/08/11 08:32:11;;;;;;;5.40;4.91;;;;;;;23.20;68.80;100348.03;;;;-44
2020/08/11 08:35:11;;;;;;;5.37;4.77;;;;;;;23.21;68.67;100354.50;;;;-47
2020/08/11 08:38:11;;;;;;;9.97;4.88;;;;;;;23.23;68.71;100354.25;;;;-51
2020/08/11 08:41:11;;;;;;;6.78;4.71;;;;;;;23.24;68.63;100358.80;;;;-42
2020/08/11 08:44:11;;;;;;;5.32;4.81;;;;;;;23.25;68.73;100350.79;;;;-50
2020/08/11 08:47:11;;;;;;;6.53;4.99;;;;;;;23.26;68.76;100353.78;;;;-49
2020/08/11 08:50:11;;;;;;;5.28;4.65;;;;;;;23.27;68.75;100355.50;;;;-47
2020/08/11 08:53:11;;;;;;;7.55;4.79;;;;;;;23.28;68.71;100352.95;;;;-41
2020/08/11 08:56:11;;;;;;;5.32;4.82;;;;;;;23.30;68.61;100360.95;;;;-50
2020/08/11 08:59:11;;;;;;;9.99;5.25;;;;;;;23.33;69.69;100358.47;;;;-45
2020/08/11 09:02:11;;;;;;;5.49;5.01;;;;;;;23.32;69.40;100357.22;;;;-44
2020/08/11 09:05:11;;;;;;;9.81;5.51;;;;;;;23.35;69.09;100356.66;;;;-48
2020/08/11 09:08:11;;;;;;;9.34;5.26;;;;;;;23.36;68.91;100355.97;;;;-48
2020/08/11 09:11:11;;;;;;;9.76;5.08;;;;;;;23.38;68.88;100353.06;;;;-51
2020/08/11 09:14:10;;;;;;;5.77;5.13;;;;;;;23.39;68.82;100347.69;;;;-50
2020/08/11 09:17:11;;;;;;;7.43;4.90;;;;;;;23.39;68.96;100347.67;;;;-50
2020/08/11 09:20:11;;;;;;;9.42;5.04;;;;;;;23.40;68.86;100347.00;;;;-43
2020/08/11 09:23:11;;;;;;;6.86;4.81;;;;;;;23.41;68.70;100347.23;;;;-52
2020/08/11 09:26:11;;;;;;;7.75;5.19;;;;;;;23.42;68.59;100342.91;;;;-51
2020/08/11 09:29:11;;;;;;;7.92;5.45;;;;;;;23.42;68.60;100343.88;;;;-44
2020/08/11 09:32:11;;;;;;;9.63;5.11;;;;;;;23.43;68.69;100347.53;;;;-46
2020/08/11 09:35:11;;;;;;;7.49;5.23;;;;;;;23.43;68.69;100350.81;;;;-50
2020/08/11 09:38:11;;;;;;;6.48;4.97;;;;;;;23.43;68.78;100348.86;;;;-44
2020/08/11 09:41:11;;;;;;;6.69;4.91;;;;;;;23.45;68.79;100351.03;;;;-44
2020/08/11 09:44:11;;;;;;;7.26;5.00;;;;;;;23.46;68.76;100350.45;;;;-45
2020/08/11 09:47:11;;;;;;;7.91;5.11;;;;;;;23.45;68.88;100350.39;;;;-43
2020/08/11 09:50:11;;;;;;;9.08;5.09;;;;;;;23.46;68.74;100347.09;;;;-45
2020/08/11 09:53:11;;;;;;;6.87;4.97;;;;;;;23.46;68.75;100345.55;;;;-49
2020/08/11 09:56:11;;;;;;;5.81;5.13;;;;;;;23.47;68.73;100344.86;;;;-53
2020/08/11 09:59:11;;;;;;;7.33;5.06;;;;;;;23.48;68.81;100343.47;;;;-48
2020/08/11 10:02:11;;;;;;;6.05;4.81;;;;;;;23.49;68.73;100340.52;;;;-45
2020/08/11 10:05:11;;;;;;;5.42;4.92;;;;;;;23.50;68.81;100343.70;;;;-52
2020/08/11 10:08:11;;;;;;;8.37;5.08;;;;;;;23.50;68.79;100340.99;;;;-47
2020/08/11 10:11:10;;;;;;;7.13;5.40;;;;;;;23.52;68.54;100339.76;;;;-44
2020/08/11 10:14:10;;;;;;;8.13;5.01;;;;;;;23.51;68.53;100337.70;;;;-44
2020/08/11 10:17:10;;;;;;;7.34;5.37;;;;;;;23.49;68.51;100329.56;;;;-44
2020/08/11 10:20:11;;;;;;;6.36;5.05;;;;;;;23.49;68.49;100331.27;;;;-44
2020/08/11 10:23:11;;;;;;;5.92;5.06;;;;;;;23.49;68.45;100331.19;;;;-43
2020/08/11 10:26:11;;;;;;;5.36;4.79;;;;;;;23.48;68.46;100334.40;;;;-44
2020/08/11 10:29:11;;;;;;;7.93;4.97;;;;;;;23.48;68.37;100335.63;;;;-44
2020/08/11 10:32:11;;;;;;;7.27;4.95;;;;;;;23.47;68.35;100334.41;;;;-44
2020/08/11 10:35:11;;;;;;;5.75;4.83;;;;;;;23.47;68.29;100337.94;;;;-43
2020/08/11 10:38:11;;;;;;;5.21;4.70;;;;;;;23.46;68.29;100334.33;;;;-43
2020/08/11 10:41:11;;;;;;;5.53;5.02;;;;;;;23.46;68.22;100334.34;;;;-43
2020/08/11 10:44:11;;;;;;;6.42;4.63;;;;;;;23.46;68.18;100336.39;;;;-46
2020/08/11 10:47:11;;;;;;;5.37;4.78;;;;;;;23.45;68.23;100329.52;;;;-44
2020/08/11 10:50:11;;;;;;;6.18;4.92;;;;;;;23.45;68.18;100327.22;;;;-47
2020/08/11 10:53:11;;;;;;;12.25;6.05;;;;;;;23.45;68.70;100323.73;;;;-44
2020/08/11 10:56:11;;;;;;;12.67;6.11;;;;;;;23.44;68.46;100323.80;;;;-44
2020/08/11 10:59:11;;;;;;;9.33;5.69;;;;;;;23.44;68.37;100319.64;;;;-44
2020/08/11 11:02:11;;;;;;;7.73;4.98;;;;;;;23.44;68.34;100314.41;;;;-46
2020/08/11 11:05:11;;;;;;;6.80;5.35;;;;;;;23.44;68.29;100311.05;;;;-45
2020/08/11 11:08:10;;;;;;;9.59;5.50;;;;;;;23.44;68.26;100309.66;;;;-44
2020/08/11 11:11:10;;;;;;;6.79;5.25;;;;;;;23.44;68.22;100312.02;;;;-47
2020/08/11 11:14:10;;;;;;;6.01;5.25;;;;;;;23.44;68.17;100306.64;;;;-45
2020/08/11 11:17:11;;;;;;;6.60;5.27;;;;;;;23.43;68.23;100305.27;;;;-46
2020/08/11 11:20:11;;;;;;;8.27;5.14;;;;;;;23.43;68.18;100300.11;;;;-45
2020/08/11 11:23:11;;;;;;;7.71;5.39;;;;;;;23.44;68.37;100292.73;;;;-48
2020/08/11 11:26:11;;;;;;;7.20;5.39;;;;;;;23.45;68.40;100290.67;;;;-44
2020/08/11 11:29:11;;;;;;;11.93;5.53;;;;;;;23.45;68.75;100284.22;;;;-44
2020/08/11 11:32:11;;;;;;;6.66;5.25;;;;;;;23.46;68.68;100280.59;;;;-43
2020/08/11 11:35:10;;;;;;;7.19;5.28;;;;;;;23.47;68.66;100281.41;;;;-44
2020/08/11 11:38:11;;;;;;;7.07;5.19;;;;;;;23.48;68.81;100276.15;;;;-44
2020/08/11 11:41:10;;;;;;;6.70;5.30;;;;;;;23.50;68.77;100270.50;;;;-43
2020/08/11 11:44:11;;;;;;;8.80;5.23;;;;;;;23.51;68.75;100266.89;;;;-42
2020/08/11 11:47:11;;;;;;;8.31;5.37;;;;;;;23.52;68.83;100272.83;;;;-45
2020/08/11 11:50:11;;;;;;;22.61;6.56;;;;;;;23.53;69.16;100268.50;;;;-44
2020/08/11 11:53:11;;;;;;;14.97;5.77;;;;;;;23.55;69.25;100267.30;;;;-44
2020/08/11 11:56:11;;;;;;;11.10;5.52;;;;;;;23.55;69.01;100268.78;;;;-43
2020/08/11 11:59:11;;;;;;;10.17;5.41;;;;;;;23.56;69.11;100263.38;;;;-45
2020/08/11 12:02:11;;;;;;;11.13;5.63;;;;;;;23.58;68.88;100262.53;;;;-44
2020/08/11 12:05:10;;;;;;;8.13;5.64;;;;;;;23.58;69.04;100262.36;;;;-52
2020/08/11 12:08:10;;;;;;;7.69;5.45;;;;;;;23.60;69.20;100251.55;;;;-42
2020/08/11 12:11:10;;;;;;;13.20;5.65;;;;;;;23.61;69.05;100257.80;;;;-44
2020/08/11 12:14:11;;;;;;;10.81;5.50;;;;;;;23.62;69.31;100246.61;;;;-47
2020/08/11 12:17:11;;;;;;;8.59;5.29;;;;;;;23.63;69.11;100245.52;;;;-44
2020/08/11 12:20:11;;;;;;;8.03;5.13;;;;;;;23.64;69.18;100239.85;;;;-44
2020/08/11 12:23:11;;;;;;;10.71;5.07;;;;;;;23.64;69.10;100240.27;;;;-43
2020/08/11 12:26:11;;;;;;;9.47;5.26;;;;;;;23.66;69.17;100233.94;;;;-45
2020/08/11 12:29:11;;;;;;;11.14;5.36;;;;;;;23.66;69.26;100233.70;;;;-43
2020/08/11 12:32:10;;;;;;;9.09;5.13;;;;;;;23.67;69.00;100229.66;;;;-43
2020/08/11 12:35:10;;;;;;;9.17;5.76;;;;;;;23.65;69.12;100226.83;;;;-44
2020/08/11 12:38:11;;;;;;;7.82;5.38;;;;;;;23.66;69.23;100224.30;;;;-51
2020/08/11 12:41:11;;;;;;;6.76;5.36;;;;;;;23.66;69.04;100216.68;;;;-51
2020/08/11 12:44:11;;;;;;;8.44;5.15;;;;;;;23.68;69.08;100213.37;;;;-43
2020/08/11 12:47:11;;;;;;;6.79;5.37;;;;;;;23.69;68.97;100212.70;;;;-46
2020/08/11 12:50:11;;;;;;;9.21;5.59;;;;;;;23.70;69.04;100210.80;;;;-50
2020/08/11 12:53:11;;;;;;;7.25;5.11;;;;;;;23.71;69.05;100207.36;;;;-48
2020/08/11 12:56:11;;;;;;;8.49;5.51;;;;;;;23.72;68.89;100204.73;;;;-42
2020/08/11 12:59:11;;;;;;;7.99;5.10;;;;;;;23.73;69.17;100201.44;;;;-42
2020/08/11 13:02:10;;;;;;;10.35;5.74;;;;;;;23.73;69.06;100198.41;;;;-43
2020/08/11 13:05:10;;;;;;;10.74;5.51;;;;;;;23.74;69.08;100195.70;;;;-48
2020/08/11 13:08:10;;;;;;;9.95;5.26;;;;;;;23.73;69.02;100189.98;;;;-45
2020/08/11 13:11:10;;;;;;;9.57;5.77;;;;;;;23.73;68.79;100194.31;;;;-44
2020/08/11 13:14:11;;;;;;;11.27;5.47;;;;;;;23.73;68.97;100186.06;;;;-44
2020/08/11 13:17:10;;;;;;;11.77;5.59;;;;;;;23.73;69.12;100184.00;;;;-43
2020/08/11 13:20:11;;;;;;;9.35;5.43;;;;;;;23.74;68.91;100174.75;;;;-53
2020/08/11 13:23:11;;;;;;;7.80;5.33;;;;;;;23.74;69.03;100174.02;;;;-43
2020/08/11 13:26:11;;;;;;;8.17;5.47;;;;;;;23.75;68.96;100166.64;;;;-42
2020/08/11 13:29:11;;;;;;;7.39;5.54;;;;;;;23.76;69.05;100169.90;;;;-41
2020/08/11 13:32:10;;;;;;;6.18;5.43;;;;;;;23.76;69.24;100169.02;;;;-48
2020/08/11 13:35:11;;;;;;;9.41;5.38;;;;;;;23.78;69.19;100171.92;;;;-46
2020/08/11 13:38:11;;;;;;;7.25;5.15;;;;;;;23.78;69.21;100166.84;;;;-48
2020/08/11 13:41:11;;;;;;;8.25;5.38;;;;;;;23.79;69.04;100162.19;;;;-41
2020/08/11 13:44:10;;;;;;;8.35;5.19;;;;;;;23.79;69.24;100161.10;;;;-55
2020/08/11 13:47:11;;;;;;;10.70;5.38;;;;;;;23.81;69.12;100159.84;;;;-45
2020/08/11 13:50:11;;;;;;;10.25;5.32;;;;;;;23.82;69.04;100147.48;;;;-44
2020/08/11 13:53:11;;;;;;;8.57;5.28;;;;;;;23.83;69.24;100149.45;;;;-48
2020/08/11 13:56:11;;;;;;;8.57;5.23;;;;;;;23.83;69.15;100140.61;;;;-42
2020/08/11 13:59:11;;;;;;;6.85;5.05;;;;;;;23.83;69.13;100131.61;;;;-43
2020/08/11 14:02:10;;;;;;;8.49;5.07;;;;;;;23.83;69.18;100127.17;;;;-41
2020/08/11 14:05:10;;;;;;;7.03;5.00;;;;;;;23.84;69.23;100117.17;;;;-52
2020/08/11 14:08:10;;;;;;;7.38;5.01;;;;;;;23.85;69.29;100114.22;;;;-46
2020/08/11 14:11:10;;;;;;;6.80;5.09;;;;;;;23.86;69.21;100115.57;;;;-43
2020/08/11 14:14:11;;;;;;;8.78;5.18;;;;;;;23.86;69.14;100114.25;;;;-46
2020/08/11 14:17:11;;;;;;;6.67;4.87;;;;;;;23.87;69.22;100128.17;;;;-45
2020/08/11 14:20:11;;;;;;;9.01;5.11;;;;;;;23.88;69.55;100129.27;;;;-46
2020/08/11 14:23:11;;;;;;;6.95;5.12;;;;;;;23.87;69.00;100132.50;;;;-44
2020/08/11 14:26:11;;;;;;;6.49;5.24;;;;;;;23.86;69.14;100129.32;;;;-43
2020/08/11 14:29:11;;;;;;;14.39;5.51;;;;;;;23.86;69.33;100129.25;;;;-42
2020/08/11 14:32:11;;;;;;;9.28;6.29;;;;;;;23.86;69.12;100135.69;;;;-41
2020/08/11 14:35:11;;;;;;;10.27;5.35;;;;;;;23.88;69.17;100138.22;;;;-42
2020/08/11 14:38:10;;;;;;;12.97;5.73;;;;;;;23.88;69.27;100141.81;;;;-42
2020/08/11 14:41:11;;;;;;;9.31;5.61;;;;;;;23.88;69.20;100146.45;;;;-41
2020/08/11 14:44:11;;;;;;;7.91;5.16;;;;;;;23.89;69.20;100147.45;;;;-43
2020/08/11 14:47:11;;;;;;;8.29;5.38;;;;;;;23.89;69.20;100139.20;;;;-44
2020/08/11 14:50:11;;;;;;;8.27;5.47;;;;;;;23.90;69.35;100148.97;;;;-41
2020/08/11 14:53:11;;;;;;;10.41;5.91;;;;;;;23.91;69.02;100138.33;;;;-41
2020/08/11 14:56:11;;;;;;;11.85;5.33;;;;;;;23.92;69.15;100133.66;;;;-49
2020/08/11 14:59:10;;;;;;;11.81;5.36;;;;;;;23.92;69.23;100126.85;;;;-49
2020/08/11 15:02:10;;;;;;;10.91;5.57;;;;;;;23.92;69.18;100122.83;;;;-49
2020/08/11 15:05:10;;;;;;;8.27;5.75;;;;;;;23.93;69.24;100116.92;;;;-41
2020/08/11 15:08:11;;;;;;;6.53;5.41;;;;;;;23.93;69.02;100109.72;;;;-42
2020/08/11 15:11:10;;;;;;;6.95;5.62;;;;;;;23.93;69.01;100103.52;;;;-50
2020/08/11 15:14:11;;;;;;;7.87;5.43;;;;;;;23.94;69.01;100097.09;;;;-43
2020/08/11 15:17:11;;;;;;;9.01;5.51;;;;;;;23.92;68.80;100092.45;;;;-43
2020/08/11 15:20:11;;;;;;;9.11;5.29;;;;;;;23.90;68.78;100085.70;;;;-43
2020/08/11 15:23:11;;;;;;;9.49;5.51;;;;;;;23.88;68.72;100083.36;;;;-43
2020/08/11 15:26:11;;;;;;;7.88;5.10;;;;;;;23.86;68.94;100079.41;;;;-46
2020/08/11 15:29:11;;;;;;;9.33;5.27;;;;;;;23.87;68.95;100080.61;;;;-42
2020/08/11 15:32:10;;;;;;;8.95;5.23;;;;;;;23.87;68.93;100091.83;;;;-43
2020/08/11 15:35:10;;;;;;;7.43;5.35;;;;;;;23.87;68.91;100102.13;;;;-43
2020/08/11 15:38:11;;;;;;;9.27;5.65;;;;;;;23.88;68.88;100108.48;;;;-43
2020/08/11 15:41:11;;;;;;;8.77;5.67;;;;;;;23.88;69.00;100107.84;;;;-47
2020/08/11 15:44:11;;;;;;;8.25;5.62;;;;;;;23.85;68.72;100103.17;;;;-46
2020/08/11 15:47:11;;;;;;;10.27;5.83;;;;;;;23.84;68.68;100106.19;;;;-45
2020/08/11 15:50:10;;;;;;;8.97;5.69;;;;;;;23.82;68.62;100114.66;;;;-44
2020/08/11 15:53:11;;;;;;;6.35;5.74;;;;;;;23.79;68.62;100119.20;;;;-45
2020/08/11 15:56:11;;;;;;;7.33;5.73;;;;;;;23.78;68.71;100114.09;;;;-44
2020/08/11 15:59:10;;;;;;;8.86;5.97;;;;;;;23.77;68.69;100104.13;;;;-45
2020/08/11 16:02:10;;;;;;;6.25;5.66;;;;;;;23.75;68.71;100100.67;;;;-44
2020/08/11 16:05:10;;;;;;;7.89;6.01;;;;;;;23.74;68.68;100089.58;;;;-44
2020/08/11 16:08:10;;;;;;;8.35;5.87;;;;;;;23.73;68.72;100097.77;;;;-44
2020/08/11 16:11:10;;;;;;;6.79;5.75;;;;;;;23.71;68.67;100101.06;;;;-43
2020/08/11 16:14:10;;;;;;;6.74;6.01;;;;;;;23.70;68.71;100096.18;;;;-43
2020/08/11 16:17:11;;;;;;;7.49;6.11;;;;;;;23.70;68.68;100092.27;;;;-44
2020/08/11 16:20:11;;;;;;;7.50;5.86;;;;;;;23.68;68.80;100096.55;;;;-43
2020/08/11 16:23:11;;;;;;;6.96;6.13;;;;;;;23.68;68.81;100096.06;;;;-45
2020/08/11 16:26:11;;;;;;;6.93;6.05;;;;;;;23.67;68.80;100104.81;;;;-44
2020/08/11 16:29:10;;;;;;;6.61;6.01;;;;;;;23.67;68.69;100107.12;;;;-44
2020/08/11 16:32:10;;;;;;;6.46;5.82;;;;;;;23.67;68.58;100107.12;;;;-44
2020/08/11 16:35:10;;;;;;;6.55;5.61;;;;;;;23.67;68.67;100100.98;;;;-44
2020/08/11 16:38:11;;;;;;;8.64;5.93;;;;;;;23.67;68.69;100103.52;;;;-44
2020/08/11 16:41:11;;;;;;;7.37;5.69;;;;;;;23.65;68.52;100097.56;;;;-43
2020/08/11 16:44:11;;;;;;;6.43;5.71;;;;;;;23.65;68.47;100102.96;;;;-44
2020/08/11 16:47:11;;;;;;;7.75;5.91;;;;;;;23.66;68.86;100105.48;;;;-43